sensor_id;sensor_type;location;lat;lon;timestamp;temperature;humidity
24260;DHT22;12384;48.112;18.418;2022-12-17T00:02:13;1.20;99.90
24260;DHT22;12384;48.112;18.418;2022-12-17T00:04:59;1.20;99.90
24260;DHT22;12384;48.112;18.418;2022-12-17T00:07:45;1.20;99.90
24260;DHT22;12384;48.112;18.418;2022-12-17T00:10:31;1.20;99.90
24260;DHT22;12384;48.112;18.418;2022-12-17T00:13:18;1.10;99.90
24260;DHT22;12384;48.112;18.418;2022-12-17T00:16:06;1.10;99.90
24260;DHT22;12384;48.112;18.418;2022-12-17T00:18:53;1.20;99.90
24260;DHT22;12384;48.112;18.418;2022-12-17T00:21:39;1.10;99.90
24260;DHT22;12384;48.112;18.418;2022-12-17T00:24:25;1.10;99.90
24260;DHT22;12384;48.112;18.418;2022-12-17T00:27:11;1.10;99.90
24260;DHT22;12384;48.112;18.418;2022-12-17T00:29:57;1.10;99.90
24260;DHT22;12384;48.112;18.418;2022-12-17T00:32:44;1.10;99.90
24260;DHT22;12384;48.112;18.418;2022-12-17T00:35:31;1.10;99.90
24260;DHT22;12384;48.112;18.418;2022-12-17T00:38:17;1.10;99.90
24260;DHT22;12384;48.112;18.418;2022-12-17T00:41:04;1.10;99.90
24260;DHT22;12384;48.112;18.418;2022-12-17T00:43:51;1.10;99.90
24260;DHT22;12384;48.112;18.418;2022-12-17T00:46:37;1.10;99.90
24260;DHT22;12384;48.112;18.418;2022-12-17T00:49:24;1.10;99.90
24260;DHT22;12384;48.112;18.418;2022-12-17T00:52:11;1.10;99.90
24260;DHT22;12384;48.112;18.418;2022-12-17T00:54:57;1.00;99.90
24260;DHT22;12384;48.112;18.418;2022-12-17T00:57:43;1.10;99.90
24260;DHT22;12384;48.112;18.418;2022-12-17T01:00:30;1.00;99.90
24260;DHT22;12384;48.112;18.418;2022-12-17T01:03:16;1.00;99.90
24260;DHT22;12384;48.112;18.418;2022-12-17T01:06:06;1.00;99.90
24260;DHT22;12384;48.112;18.418;2022-12-17T01:08:53;1.00;99.90
24260;DHT22;12384;48.112;18.418;2022-12-17T01:11:39;1.00;99.90
24260;DHT22;12384;48.112;18.418;2022-12-17T01:14:25;1.00;99.90
24260;DHT22;12384;48.112;18.418;2022-12-17T01:17:12;1.00;99.90
24260;DHT22;12384;48.112;18.418;2022-12-17T01:19:58;1.00;99.90
24260;DHT22;12384;48.112;18.418;2022-12-17T01:22:55;1.00;99.90
24260;DHT22;12384;48.112;18.418;2022-12-17T01:25:54;1.00;99.90
24260;DHT22;12384;48.112;18.418;2022-12-17T01:28:41;1.00;99.90
24260;DHT22;12384;48.112;18.418;2022-12-17T01:31:27;1.00;99.90
24260;DHT22;12384;48.112;18.418;2022-12-17T01:34:15;1.00;99.90
24260;DHT22;12384;48.112;18.418;2022-12-17T01:37:02;0.90;99.90
24260;DHT22;12384;48.112;18.418;2022-12-17T01:39:48;0.90;99.90
24260;DHT22;12384;48.112;18.418;2022-12-17T01:42:40;1.00;99.90
24260;DHT22;12384;48.112;18.418;2022-12-17T01:45:30;0.90;99.90
24260;DHT22;12384;48.112;18.418;2022-12-17T01:48:30;0.90;99.90
24260;DHT22;12384;48.112;18.418;2022-12-17T01:51:17;0.90;99.90
24260;DHT22;12384;48.112;18.418;2022-12-17T01:54:04;0.90;99.90
24260;DHT22;12384;48.112;18.418;2022-12-17T01:56:50;0.90;99.90
24260;DHT22;12384;48.112;18.418;2022-12-17T01:59:43;0.80;99.90
24260;DHT22;12384;48.112;18.418;2022-12-17T02:02:39;0.80;99.90
24260;DHT22;12384;48.112;18.418;2022-12-17T02:05:40;0.80;99.90
24260;DHT22;12384;48.112;18.418;2022-12-17T02:08:34;0.80;99.90
24260;DHT22;12384;48.112;18.418;2022-12-17T02:11:27;0.80;99.90
24260;DHT22;12384;48.112;18.418;2022-12-17T02:14:22;0.80;99.90
24260;DHT22;12384;48.112;18.418;2022-12-17T02:17:15;0.80;99.90
24260;DHT22;12384;48.112;18.418;2022-12-17T02:20:18;0.80;99.90
24260;DHT22;12384;48.112;18.418;2022-12-17T02:23:11;0.80;99.90
24260;DHT22;12384;48.112;18.418;2022-12-17T02:26:01;0.70;99.90
24260;DHT22;12384;48.112;18.418;2022-12-17T02:28:51;0.70;99.90
24260;DHT22;12384;48.112;18.418;2022-12-17T02:31:39;0.70;99.90
24260;DHT22;12384;48.112;18.418;2022-12-17T02:34:25;0.70;99.90
24260;DHT22;12384;48.112;18.418;2022-12-17T02:37:23;0.60;99.90
24260;DHT22;12384;48.112;18.418;2022-12-17T02:40:09;0.70;99.90
24260;DHT22;12384;48.112;18.418;2022-12-17T02:42:56;0.60;99.90
24260;DHT22;12384;48.112;18.418;2022-12-17T02:45:44;0.60;99.90
24260;DHT22;12384;48.112;18.418;2022-12-17T02:48:31;0.60;99.90
24260;DHT22;12384;48.112;18.418;2022-12-17T02:51:17;0.60;99.90
24260;DHT22;12384;48.112;18.418;2022-12-17T02:54:04;0.50;99.90
24260;DHT22;12384;48.112;18.418;2022-12-17T02:56:50;0.50;99.90
24260;DHT22;12384;48.112;18.418;2022-12-17T02:59:36;0.50;99.90
24260;DHT22;12384;48.112;18.418;2022-12-17T03:02:23;0.50;99.90
24260;DHT22;12384;48.112;18.418;2022-12-17T03:05:10;0.40;99.90
24260;DHT22;12384;48.112;18.418;2022-12-17T03:08:11;0.40;99.90
24260;DHT22;12384;48.112;18.418;2022-12-17T03:10:57;0.30;99.90
24260;DHT22;12384;48.112;18.418;2022-12-17T03:13:43;0.30;99.90
24260;DHT22;12384;48.112;18.418;2022-12-17T03:16:29;0.30;99.90
24260;DHT22;12384;48.112;18.418;2022-12-17T03:19:17;0.30;99.90
24260;DHT22;12384;48.112;18.418;2022-12-17T03:22:02;0.30;99.90
24260;DHT22;12384;48.112;18.418;2022-12-17T03:24:48;0.30;99.90
24260;DHT22;12384;48.112;18.418;2022-12-17T03:27:33;0.20;99.90
24260;DHT22;12384;48.112;18.418;2022-12-17T03:30:19;0.20;99.90
24260;DHT22;12384;48.112;18.418;2022-12-17T03:33:07;0.20;99.90
24260;DHT22;12384;48.112;18.418;2022-12-17T03:35:54;0.20;99.90
24260;DHT22;12384;48.112;18.418;2022-12-17T03:38:39;0.20;99.90
24260;DHT22;12384;48.112;18.418;2022-12-17T03:41:25;0.20;99.90
24260;DHT22;12384;48.112;18.418;2022-12-17T03:44:11;0.20;99.90
24260;DHT22;12384;48.112;18.418;2022-12-17T03:46:56;0.20;99.90
24260;DHT22;12384;48.112;18.418;2022-12-17T03:49:42;0.20;99.90
24260;DHT22;12384;48.112;18.418;2022-12-17T03:52:29;0.20;99.90
24260;DHT22;12384;48.112;18.418;2022-12-17T03:55:15;0.10;99.90
24260;DHT22;12384;48.112;18.418;2022-12-17T03:58:01;0.20;99.90
24260;DHT22;12384;48.112;18.418;2022-12-17T04:00:52;0.10;99.90
24260;DHT22;12384;48.112;18.418;2022-12-17T04:03:38;0.10;99.90
24260;DHT22;12384;48.112;18.418;2022-12-17T04:06:24;0.10;99.90
24260;DHT22;12384;48.112;18.418;2022-12-17T04:09:11;0.10;99.90
24260;DHT22;12384;48.112;18.418;2022-12-17T04:11:56;0.10;99.90
24260;DHT22;12384;48.112;18.418;2022-12-17T04:14:42;0.10;99.90
24260;DHT22;12384;48.112;18.418;2022-12-17T04:17:28;0.00;99.90
24260;DHT22;12384;48.112;18.418;2022-12-17T04:20:14;0.10;99.90
24260;DHT22;12384;48.112;18.418;2022-12-17T04:23:00;0.00;99.90
24260;DHT22;12384;48.112;18.418;2022-12-17T04:25:46;0.00;99.90
24260;DHT22;12384;48.112;18.418;2022-12-17T04:28:31;-0.10;99.90
24260;DHT22;12384;48.112;18.418;2022-12-17T04:31:17;-0.10;99.90
24260;DHT22;12384;48.112;18.418;2022-12-17T04:34:03;-0.10;99.90
24260;DHT22;12384;48.112;18.418;2022-12-17T04:36:49;-0.10;99.90
24260;DHT22;12384;48.112;18.418;2022-12-17T04:39:34;-0.10;99.90
24260;DHT22;12384;48.112;18.418;2022-12-17T04:42:21;-0.10;99.90
24260;DHT22;12384;48.112;18.418;2022-12-17T04:45:08;-0.10;99.90
24260;DHT22;12384;48.112;18.418;2022-12-17T04:48:00;-0.10;99.90
24260;DHT22;12384;48.112;18.418;2022-12-17T04:50:46;-0.10;99.90
24260;DHT22;12384;48.112;18.418;2022-12-17T04:53:31;-0.10;99.90
24260;DHT22;12384;48.112;18.418;2022-12-17T04:56:17;-0.10;99.90
24260;DHT22;12384;48.112;18.418;2022-12-17T04:59:04;-0.10;99.90
24260;DHT22;12384;48.112;18.418;2022-12-17T05:01:50;0.00;99.90
24260;DHT22;12384;48.112;18.418;2022-12-17T05:04:36;-0.10;99.90
24260;DHT22;12384;48.112;18.418;2022-12-17T05:07:22;0.00;99.90
24260;DHT22;12384;48.112;18.418;2022-12-17T05:10:08;-0.10;99.90
24260;DHT22;12384;48.112;18.418;2022-12-17T05:12:57;-0.10;99.90
24260;DHT22;12384;48.112;18.418;2022-12-17T05:15:56;-0.10;99.90
24260;DHT22;12384;48.112;18.418;2022-12-17T05:18:42;-0.10;99.90
24260;DHT22;12384;48.112;18.418;2022-12-17T05:21:27;-0.10;99.90
24260;DHT22;12384;48.112;18.418;2022-12-17T05:24:13;-0.10;99.90
24260;DHT22;12384;48.112;18.418;2022-12-17T05:26:59;-0.10;99.90
24260;DHT22;12384;48.112;18.418;2022-12-17T05:29:45;-0.10;99.90
24260;DHT22;12384;48.112;18.418;2022-12-17T05:32:32;-0.10;99.90
24260;DHT22;12384;48.112;18.418;2022-12-17T05:35:18;-0.10;99.90
24260;DHT22;12384;48.112;18.418;2022-12-17T05:38:05;-0.10;99.90
24260;DHT22;12384;48.112;18.418;2022-12-17T05:41:06;-0.10;99.90
24260;DHT22;12384;48.112;18.418;2022-12-17T05:43:52;-0.20;99.90
24260;DHT22;12384;48.112;18.418;2022-12-17T05:46:38;-0.20;99.90
24260;DHT22;12384;48.112;18.418;2022-12-17T05:49:25;-0.20;99.90
24260;DHT22;12384;48.112;18.418;2022-12-17T05:52:16;-0.20;99.90
24260;DHT22;12384;48.112;18.418;2022-12-17T05:55:01;-0.20;99.90
24260;DHT22;12384;48.112;18.418;2022-12-17T05:57:47;-0.20;99.90
24260;DHT22;12384;48.112;18.418;2022-12-17T06:00:33;-0.20;99.90
24260;DHT22;12384;48.112;18.418;2022-12-17T06:03:19;-0.20;99.90
24260;DHT22;12384;48.112;18.418;2022-12-17T06:06:07;-0.20;99.90
24260;DHT22;12384;48.112;18.418;2022-12-17T06:08:52;-0.30;99.90
24260;DHT22;12384;48.112;18.418;2022-12-17T06:11:38;-0.30;99.90
24260;DHT22;12384;48.112;18.418;2022-12-17T06:14:38;-0.30;99.90
24260;DHT22;12384;48.112;18.418;2022-12-17T06:17:24;-0.30;99.90
24260;DHT22;12384;48.112;18.418;2022-12-17T06:20:10;-0.30;99.90
24260;DHT22;12384;48.112;18.418;2022-12-17T06:23:00;-0.30;99.90
24260;DHT22;12384;48.112;18.418;2022-12-17T06:25:46;-0.30;99.90
24260;DHT22;12384;48.112;18.418;2022-12-17T06:28:32;-0.30;99.90
24260;DHT22;12384;48.112;18.418;2022-12-17T06:31:18;-0.40;99.90
24260;DHT22;12384;48.112;18.418;2022-12-17T06:34:12;-0.40;99.90
24260;DHT22;12384;48.112;18.418;2022-12-17T06:36:58;-0.40;99.90
24260;DHT22;12384;48.112;18.418;2022-12-17T06:39:45;-0.50;99.90
24260;DHT22;12384;48.112;18.418;2022-12-17T06:42:30;-0.50;99.90
24260;DHT22;12384;48.112;18.418;2022-12-17T06:45:16;-0.50;99.90
24260;DHT22;12384;48.112;18.418;2022-12-17T06:48:02;-0.60;99.90
24260;DHT22;12384;48.112;18.418;2022-12-17T06:50:48;-0.60;99.90
24260;DHT22;12384;48.112;18.418;2022-12-17T06:53:35;-0.60;99.90
24260;DHT22;12384;48.112;18.418;2022-12-17T06:56:22;-0.60;99.90
24260;DHT22;12384;48.112;18.418;2022-12-17T06:59:07;-0.60;99.90
24260;DHT22;12384;48.112;18.418;2022-12-17T07:01:53;-0.60;99.90
24260;DHT22;12384;48.112;18.418;2022-12-17T07:04:39;-0.60;99.90
24260;DHT22;12384;48.112;18.418;2022-12-17T07:07:25;-0.60;99.90
24260;DHT22;12384;48.112;18.418;2022-12-17T07:10:11;-0.60;99.90
24260;DHT22;12384;48.112;18.418;2022-12-17T07:13:04;-0.60;99.90
24260;DHT22;12384;48.112;18.418;2022-12-17T07:15:50;-0.60;99.90
24260;DHT22;12384;48.112;18.418;2022-12-17T07:18:36;-0.60;99.90
24260;DHT22;12384;48.112;18.418;2022-12-17T07:21:22;-0.60;99.90
24260;DHT22;12384;48.112;18.418;2022-12-17T07:24:08;-0.70;99.90
24260;DHT22;12384;48.112;18.418;2022-12-17T07:26:54;-0.70;99.90
24260;DHT22;12384;48.112;18.418;2022-12-17T07:29:42;-0.70;99.90
24260;DHT22;12384;48.112;18.418;2022-12-17T07:32:27;-0.70;99.90
24260;DHT22;12384;48.112;18.418;2022-12-17T07:35:13;-0.70;99.90
24260;DHT22;12384;48.112;18.418;2022-12-17T07:38:00;-0.60;99.90
24260;DHT22;12384;48.112;18.418;2022-12-17T07:40:46;-0.60;99.90
24260;DHT22;12384;48.112;18.418;2022-12-17T07:43:32;-0.60;99.90
24260;DHT22;12384;48.112;18.418;2022-12-17T07:46:21;-0.60;99.90
24260;DHT22;12384;48.112;18.418;2022-12-17T07:49:06;-0.60;99.90
24260;DHT22;12384;48.112;18.418;2022-12-17T07:51:52;-0.60;99.90
24260;DHT22;12384;48.112;18.418;2022-12-17T07:54:38;-0.60;99.90
24260;DHT22;12384;48.112;18.418;2022-12-17T07:57:24;-0.60;99.90
24260;DHT22;12384;48.112;18.418;2022-12-17T08:00:11;-0.50;99.90
24260;DHT22;12384;48.112;18.418;2022-12-17T08:03:00;-0.50;99.90
24260;DHT22;12384;48.112;18.418;2022-12-17T08:05:58;-0.40;99.90
24260;DHT22;12384;48.112;18.418;2022-12-17T08:08:43;-0.30;99.90
24260;DHT22;12384;48.112;18.418;2022-12-17T08:11:29;-0.20;99.90
24260;DHT22;12384;48.112;18.418;2022-12-17T08:14:15;-0.10;99.90
24260;DHT22;12384;48.112;18.418;2022-12-17T08:17:01;0.00;99.90
24260;DHT22;12384;48.112;18.418;2022-12-17T08:19:48;0.10;99.90
24260;DHT22;12384;48.112;18.418;2022-12-17T08:22:34;0.20;99.90
24260;DHT22;12384;48.112;18.418;2022-12-17T08:25:20;0.30;99.90
24260;DHT22;12384;48.112;18.418;2022-12-17T08:28:07;0.40;99.90
24260;DHT22;12384;48.112;18.418;2022-12-17T08:31:13;0.40;99.90
24260;DHT22;12384;48.112;18.418;2022-12-17T08:33:58;0.40;99.90
24260;DHT22;12384;48.112;18.418;2022-12-17T08:36:45;0.40;99.90
24260;DHT22;12384;48.112;18.418;2022-12-17T08:39:31;0.40;99.90
24260;DHT22;12384;48.112;18.418;2022-12-17T08:42:17;0.40;99.90
24260;DHT22;12384;48.112;18.418;2022-12-17T08:45:03;0.40;99.90
24260;DHT22;12384;48.112;18.418;2022-12-17T08:47:49;0.50;99.90
24260;DHT22;12384;48.112;18.418;2022-12-17T08:50:43;0.70;99.90
24260;DHT22;12384;48.112;18.418;2022-12-17T08:53:30;1.30;99.90
24260;DHT22;12384;48.112;18.418;2022-12-17T08:56:16;2.00;99.90
24260;DHT22;12384;48.112;18.418;2022-12-17T08:59:02;2.80;99.90
24260;DHT22;12384;48.112;18.418;2022-12-17T09:01:48;3.60;99.90
24260;DHT22;12384;48.112;18.418;2022-12-17T09:04:35;4.30;99.90
24260;DHT22;12384;48.112;18.418;2022-12-17T09:07:21;4.80;99.90
24260;DHT22;12384;48.112;18.418;2022-12-17T09:10:08;5.40;99.90
24260;DHT22;12384;48.112;18.418;2022-12-17T09:12:54;5.70;99.90
24260;DHT22;12384;48.112;18.418;2022-12-17T09:15:40;5.70;99.90
24260;DHT22;12384;48.112;18.418;2022-12-17T09:18:26;5.50;94.00
24260;DHT22;12384;48.112;18.418;2022-12-17T09:21:12;5.20;85.50
24260;DHT22;12384;48.112;18.418;2022-12-17T09:23:57;4.90;81.50
24260;DHT22;12384;48.112;18.418;2022-12-17T09:26:45;4.60;78.00
24260;DHT22;12384;48.112;18.418;2022-12-17T09:29:31;4.40;75.10
24260;DHT22;12384;48.112;18.418;2022-12-17T09:32:17;4.30;76.20
24260;DHT22;12384;48.112;18.418;2022-12-17T09:35:03;4.50;79.30
24260;DHT22;12384;48.112;18.418;2022-12-17T09:37:51;4.80;80.10
24260;DHT22;12384;48.112;18.418;2022-12-17T09:40:38;5.20;83.70
24260;DHT22;12384;48.112;18.418;2022-12-17T09:43:30;5.80;85.50
24260;DHT22;12384;48.112;18.418;2022-12-17T09:46:22;6.30;84.20
24260;DHT22;12384;48.112;18.418;2022-12-17T09:49:16;6.60;78.90
24260;DHT22;12384;48.112;18.418;2022-12-17T09:52:07;6.90;74.70
24260;DHT22;12384;48.112;18.418;2022-12-17T09:54:55;7.20;71.80
24260;DHT22;12384;48.112;18.418;2022-12-17T09:57:41;7.60;71.10
24260;DHT22;12384;48.112;18.418;2022-12-17T10:00:28;8.00;67.10
24260;DHT22;12384;48.112;18.418;2022-12-17T10:03:16;8.00;61.90
24260;DHT22;12384;48.112;18.418;2022-12-17T10:06:09;7.90;58.80
24260;DHT22;12384;48.112;18.418;2022-12-17T10:08:58;7.60;57.00
24260;DHT22;12384;48.112;18.418;2022-12-17T10:11:44;7.30;55.60
24260;DHT22;12384;48.112;18.418;2022-12-17T10:14:30;6.90;55.70
24260;DHT22;12384;48.112;18.418;2022-12-17T10:17:19;6.80;56.40
24260;DHT22;12384;48.112;18.418;2022-12-17T10:20:16;6.60;56.30
24260;DHT22;12384;48.112;18.418;2022-12-17T10:23:04;6.50;57.10
24260;DHT22;12384;48.112;18.418;2022-12-17T10:26:05;6.60;57.50
24260;DHT22;12384;48.112;18.418;2022-12-17T10:29:01;6.60;56.30
24260;DHT22;12384;48.112;18.418;2022-12-17T10:31:47;6.50;55.50
24260;DHT22;12384;48.112;18.418;2022-12-17T10:34:34;6.30;55.30
24260;DHT22;12384;48.112;18.418;2022-12-17T10:37:33;6.10;54.80
24260;DHT22;12384;48.112;18.418;2022-12-17T10:40:34;5.90;54.40
24260;DHT22;12384;48.112;18.418;2022-12-17T10:43:28;5.60;54.00
24260;DHT22;12384;48.112;18.418;2022-12-17T10:46:24;5.30;53.70
24260;DHT22;12384;48.112;18.418;2022-12-17T10:49:14;4.90;53.40
24260;DHT22;12384;48.112;18.418;2022-12-17T10:52:05;4.50;53.70
24260;DHT22;12384;48.112;18.418;2022-12-17T10:55:00;4.30;54.50
24260;DHT22;12384;48.112;18.418;2022-12-17T10:57:50;4.10;55.40
24260;DHT22;12384;48.112;18.418;2022-12-17T11:00:38;4.10;56.10
24260;DHT22;12384;48.112;18.418;2022-12-17T11:03:28;4.00;56.20
24260;DHT22;12384;48.112;18.418;2022-12-17T11:06:18;3.90;56.30
24260;DHT22;12384;48.112;18.418;2022-12-17T11:09:21;3.80;56.30
24260;DHT22;12384;48.112;18.418;2022-12-17T11:12:10;3.70;56.40
24260;DHT22;12384;48.112;18.418;2022-12-17T11:15:03;3.70;56.80
24260;DHT22;12384;48.112;18.418;2022-12-17T11:17:52;3.80;57.30
24260;DHT22;12384;48.112;18.418;2022-12-17T11:20:46;3.80;57.50
24260;DHT22;12384;48.112;18.418;2022-12-17T11:23:35;3.90;57.60
24260;DHT22;12384;48.112;18.418;2022-12-17T11:26:26;3.90;57.50
24260;DHT22;12384;48.112;18.418;2022-12-17T11:29:15;3.90;57.70
24260;DHT22;12384;48.112;18.418;2022-12-17T11:35:29;4.00;57.60
24260;DHT22;12384;48.112;18.418;2022-12-17T11:38:31;3.90;57.30
24260;DHT22;12384;48.112;18.418;2022-12-17T11:41:46;3.90;57.70
24260;DHT22;12384;48.112;18.418;2022-12-17T11:44:48;3.70;56.70
24260;DHT22;12384;48.112;18.418;2022-12-17T11:47:43;3.50;56.50
24260;DHT22;12384;48.112;18.418;2022-12-17T11:50:36;3.30;56.60
24260;DHT22;12384;48.112;18.418;2022-12-17T11:53:40;3.20;56.90
24260;DHT22;12384;48.112;18.418;2022-12-17T11:56:33;3.00;57.20
24260;DHT22;12384;48.112;18.418;2022-12-17T11:59:26;2.90;57.50
24260;DHT22;12384;48.112;18.418;2022-12-17T12:02:37;2.80;57.70
24260;DHT22;12384;48.112;18.418;2022-12-17T12:05:34;2.70;57.80
24260;DHT22;12384;48.112;18.418;2022-12-17T12:08:28;2.60;58.00
24260;DHT22;12384;48.112;18.418;2022-12-17T12:11:23;2.50;58.20
24260;DHT22;12384;48.112;18.418;2022-12-17T12:14:20;2.40;58.50
24260;DHT22;12384;48.112;18.418;2022-12-17T12:17:31;2.30;58.60
24260;DHT22;12384;48.112;18.418;2022-12-17T12:20:29;2.20;59.30
24260;DHT22;12384;48.112;18.418;2022-12-17T12:23:24;2.20;58.80
24260;DHT22;12384;48.112;18.418;2022-12-17T12:26:16;2.10;59.00
24260;DHT22;12384;48.112;18.418;2022-12-17T12:29:10;2.00;59.10
24260;DHT22;12384;48.112;18.418;2022-12-17T12:32:09;2.00;59.30
24260;DHT22;12384;48.112;18.418;2022-12-17T12:34:59;1.90;59.30
24260;DHT22;12384;48.112;18.418;2022-12-17T12:37:47;1.80;59.40
24260;DHT22;12384;48.112;18.418;2022-12-17T12:40:37;1.80;59.60
24260;DHT22;12384;48.112;18.418;2022-12-17T12:43:28;1.80;59.80
24260;DHT22;12384;48.112;18.418;2022-12-17T12:46:17;1.80;60.30
24260;DHT22;12384;48.112;18.418;2022-12-17T12:49:12;1.90;61.40
24260;DHT22;12384;48.112;18.418;2022-12-17T12:52:01;2.00;61.60
24260;DHT22;12384;48.112;18.418;2022-12-17T12:54:52;2.10;61.50
24260;DHT22;12384;48.112;18.418;2022-12-17T12:57:41;2.20;61.50
24260;DHT22;12384;48.112;18.418;2022-12-17T13:00:37;2.30;61.20
24260;DHT22;12384;48.112;18.418;2022-12-17T13:03:27;2.30;60.60
24260;DHT22;12384;48.112;18.418;2022-12-17T13:09:16;2.20;59.60
24260;DHT22;12384;48.112;18.418;2022-12-17T13:11:48;2.10;59.50
24260;DHT22;12384;48.112;18.418;2022-12-17T13:14:20;2.10;59.60
24260;DHT22;12384;48.112;18.418;2022-12-17T13:16:52;2.10;59.80
24260;DHT22;12384;48.112;18.418;2022-12-17T13:19:33;2.20;60.30
24260;DHT22;12384;48.112;18.418;2022-12-17T13:22:10;2.40;61.80
24260;DHT22;12384;48.112;18.418;2022-12-17T13:24:41;2.60;61.40
24260;DHT22;12384;48.112;18.418;2022-12-17T13:27:28;2.90;60.50
24260;DHT22;12384;48.112;18.418;2022-12-17T13:29:57;3.30;59.40
24260;DHT22;12384;48.112;18.418;2022-12-17T13:32:29;3.50;58.50
24260;DHT22;12384;48.112;18.418;2022-12-17T13:35:14;3.80;57.70
24260;DHT22;12384;48.112;18.418;2022-12-17T13:37:52;3.90;56.60
24260;DHT22;12384;48.112;18.418;2022-12-17T13:40:36;4.10;55.80
24260;DHT22;12384;48.112;18.418;2022-12-17T13:43:15;4.20;55.00
24260;DHT22;12384;48.112;18.418;2022-12-17T13:45:44;4.20;54.50
24260;DHT22;12384;48.112;18.418;2022-12-17T13:48:20;4.20;54.10
24260;DHT22;12384;48.112;18.418;2022-12-17T13:50:53;4.10;53.80
24260;DHT22;12384;48.112;18.418;2022-12-17T13:53:22;4.00;53.70
24260;DHT22;12384;48.112;18.418;2022-12-17T13:55:54;3.90;53.40
24260;DHT22;12384;48.112;18.418;2022-12-17T13:58:25;3.70;53.10
24260;DHT22;12384;48.112;18.418;2022-12-17T14:01:04;3.50;53.20
24260;DHT22;12384;48.112;18.418;2022-12-17T14:03:33;3.30;53.30
24260;DHT22;12384;48.112;18.418;2022-12-17T14:06:23;3.10;53.20
24260;DHT22;12384;48.112;18.418;2022-12-17T14:08:53;2.90;53.40
24260;DHT22;12384;48.112;18.418;2022-12-17T14:11:25;2.60;53.30
24260;DHT22;12384;48.112;18.418;2022-12-17T14:14:25;2.40;53.40
24260;DHT22;12384;48.112;18.418;2022-12-17T14:16:54;2.20;53.50
24260;DHT22;12384;48.112;18.418;2022-12-17T14:19:23;2.00;53.60
24260;DHT22;12384;48.112;18.418;2022-12-17T14:21:52;1.80;53.70
24260;DHT22;12384;48.112;18.418;2022-12-17T14:24:23;1.60;53.90
24260;DHT22;12384;48.112;18.418;2022-12-17T14:26:56;1.40;54.10
24260;DHT22;12384;48.112;18.418;2022-12-17T14:29:26;1.20;54.30
24260;DHT22;12384;48.112;18.418;2022-12-17T14:31:57;1.10;54.60
24260;DHT22;12384;48.112;18.418;2022-12-17T14:34:25;0.90;54.80
24260;DHT22;12384;48.112;18.418;2022-12-17T14:36:55;0.80;55.10
24260;DHT22;12384;48.112;18.418;2022-12-17T14:39:26;0.70;55.40
24260;DHT22;12384;48.112;18.418;2022-12-17T14:41:58;0.60;55.60
24260;DHT22;12384;48.112;18.418;2022-12-17T14:44:53;0.50;56.40
24260;DHT22;12384;48.112;18.418;2022-12-17T14:47:24;0.40;56.10
24260;DHT22;12384;48.112;18.418;2022-12-17T14:49:59;0.30;56.40
24260;DHT22;12384;48.112;18.418;2022-12-17T14:52:37;0.20;56.50
24260;DHT22;12384;48.112;18.418;2022-12-17T14:55:30;0.10;56.70
24260;DHT22;12384;48.112;18.418;2022-12-17T14:58:25;0.00;57.00
24260;DHT22;12384;48.112;18.418;2022-12-17T15:00:57;-0.10;57.20
24260;DHT22;12384;48.112;18.418;2022-12-17T15:03:27;-0.10;57.40
24260;DHT22;12384;48.112;18.418;2022-12-17T15:05:57;-0.20;57.60
24260;DHT22;12384;48.112;18.418;2022-12-17T15:08:29;-0.20;57.80
24260;DHT22;12384;48.112;18.418;2022-12-17T15:10:58;-0.30;58.00
24260;DHT22;12384;48.112;18.418;2022-12-17T15:13:28;-0.30;58.20
24260;DHT22;12384;48.112;18.418;2022-12-17T15:15:56;-0.40;58.40
24260;DHT22;12384;48.112;18.418;2022-12-17T15:18:25;-0.40;58.60
24260;DHT22;12384;48.112;18.418;2022-12-17T15:20:53;-0.50;58.70
24260;DHT22;12384;48.112;18.418;2022-12-17T15:23:22;-0.50;59.00
24260;DHT22;12384;48.112;18.418;2022-12-17T15:25:52;-0.60;59.10
24260;DHT22;12384;48.112;18.418;2022-12-17T15:28:21;-0.60;59.30
24260;DHT22;12384;48.112;18.418;2022-12-17T15:30:51;-0.60;59.50
24260;DHT22;12384;48.112;18.418;2022-12-17T15:33:20;-0.60;59.70
24260;DHT22;12384;48.112;18.418;2022-12-17T15:35:49;-0.70;59.90
24260;DHT22;12384;48.112;18.418;2022-12-17T15:38:17;-0.70;60.10
24260;DHT22;12384;48.112;18.418;2022-12-17T15:40:45;-0.70;60.40
24260;DHT22;12384;48.112;18.418;2022-12-17T15:43:14;-0.70;60.60
24260;DHT22;12384;48.112;18.418;2022-12-17T15:45:43;-0.80;60.70
24260;DHT22;12384;48.112;18.418;2022-12-17T15:48:14;-0.80;61.00
24260;DHT22;12384;48.112;18.418;2022-12-17T15:50:43;-0.80;61.20
24260;DHT22;12384;48.112;18.418;2022-12-17T15:53:12;-0.80;61.40
24260;DHT22;12384;48.112;18.418;2022-12-17T15:55:40;-0.80;61.60
24260;DHT22;12384;48.112;18.418;2022-12-17T15:58:09;-0.80;61.80
24260;DHT22;12384;48.112;18.418;2022-12-17T16:00:37;-0.80;62.10
24260;DHT22;12384;48.112;18.418;2022-12-17T16:03:05;-0.80;62.30
24260;DHT22;12384;48.112;18.418;2022-12-17T16:05:35;-0.90;62.40
24260;DHT22;12384;48.112;18.418;2022-12-17T16:08:04;-0.90;62.60
24260;DHT22;12384;48.112;18.418;2022-12-17T16:10:33;-0.90;62.80
24260;DHT22;12384;48.112;18.418;2022-12-17T16:13:02;-0.90;63.00
24260;DHT22;12384;48.112;18.418;2022-12-17T16:15:30;-0.90;63.10
24260;DHT22;12384;48.112;18.418;2022-12-17T16:17:59;-0.90;63.30
24260;DHT22;12384;48.112;18.418;2022-12-17T16:20:27;-1.00;63.50
24260;DHT22;12384;48.112;18.418;2022-12-17T16:22:57;-1.00;63.70
24260;DHT22;12384;48.112;18.418;2022-12-17T16:25:27;-1.00;63.90
24260;DHT22;12384;48.112;18.418;2022-12-17T16:27:55;-1.00;64.20
24260;DHT22;12384;48.112;18.418;2022-12-17T16:30:24;-1.00;64.40
24260;DHT22;12384;48.112;18.418;2022-12-17T16:32:52;-1.00;64.60
24260;DHT22;12384;48.112;18.418;2022-12-17T16:35:20;-1.00;64.80
24260;DHT22;12384;48.112;18.418;2022-12-17T16:37:49;-1.00;65.10
24260;DHT22;12384;48.112;18.418;2022-12-17T16:40:19;-1.00;65.40
24260;DHT22;12384;48.112;18.418;2022-12-17T16:42:47;-1.00;66.40
24260;DHT22;12384;48.112;18.418;2022-12-17T16:45:16;-1.00;66.00
24260;DHT22;12384;48.112;18.418;2022-12-17T16:47:45;-1.00;66.30
24260;DHT22;12384;48.112;18.418;2022-12-17T16:50:13;-1.10;66.60
24260;DHT22;12384;48.112;18.418;2022-12-17T16:52:42;-1.00;66.90
24260;DHT22;12384;48.112;18.418;2022-12-17T16:55:11;-1.00;67.20
24260;DHT22;12384;48.112;18.418;2022-12-17T16:57:40;-1.10;67.30
24260;DHT22;12384;48.112;18.418;2022-12-17T17:00:10;-1.10;67.60
24260;DHT22;12384;48.112;18.418;2022-12-17T17:02:39;-1.10;67.90
24260;DHT22;12384;48.112;18.418;2022-12-17T17:05:08;-1.10;68.10
24260;DHT22;12384;48.112;18.418;2022-12-17T17:07:36;-1.10;68.40
24260;DHT22;12384;48.112;18.418;2022-12-17T17:10:05;-1.10;68.70
24260;DHT22;12384;48.112;18.418;2022-12-17T17:12:33;-1.10;68.90
24260;DHT22;12384;48.112;18.418;2022-12-17T17:15:05;-1.10;69.30
24260;DHT22;12384;48.112;18.418;2022-12-17T17:17:34;-1.10;69.50
24260;DHT22;12384;48.112;18.418;2022-12-17T17:20:22;-1.10;69.90